• Join FlightAware (Why Join?)
  • Login
  • US Flag 
06:12AM EST


 

Airport Tracker/Info


-or-


 

Live Flight TrackerFlight Track Log ✈ SKW4664 ✈ 24-Apr-2013 ✈ KFSD - KMSP

Flight Track Log - Related Links

Times and Time Zones

All times are in EDT time to prevent confusion due to time zone crossing. See the SKW4664 flight status page for this flight to view local times or setup timezone preferences in your user account.

Time Position Orientation Groundspeed Altitude Reporting Facility
EDT Latitude Longitude Course Direction KTS MPH feet Rate Location/Type
12:13PM 43.5494 -96.7014 108° East 219 252 4,300  Level Minneapolis Center
12:14PM 43.6067 -96.6089 49° Northeast 256 295 8,000 3,240 Climbing Minneapolis Center
12:15PM 43.6550 -96.5297 50° Northeast 265 305 11,000 2,700 Climbing Minneapolis Center
12:16PM 43.7047 -96.4456 51° Northeast 275 316 13,700 2,460 Climbing Minneapolis Center
12:17PM 43.7564 -96.3578 51° Northeast 290 334 16,200 2,220 Climbing Minneapolis Center
12:18PM 43.8106 -96.2678 50° Northeast 302 348 18,300 2,160 Climbing Minneapolis Center
12:19PM 43.8767 -96.1539 51° Northeast 319 367 20,700 1,860 Climbing Minneapolis Center
12:20PM 43.9344 -96.0564 51° Northeast 329 379 22,200 1,080 Climbing Minneapolis Center
12:21PM 43.9958 -95.9550 50° Northeast 343 395 23,000 360 Climbing Minneapolis Center
12:22PM 44.0547 -95.8525 51° Northeast 345 397 23,000  Level Minneapolis Center
12:23PM 44.1147 -95.7497 51° Northeast 345 397 23,000  Level Minneapolis Center
12:24PM 44.1761 -95.6431 51° Northeast 352 405 23,000  Level Minneapolis Center
12:25PM 44.2408 -95.5017 57° Northeast 362 417 23,000  Level Minneapolis Center
12:27PM 44.2831 -95.3733 65° Northeast 364 419 23,000  Level Minneapolis Center
12:28PM 44.3289 -95.2358 65° Northeast 386 444 23,000  Level Minneapolis Center
12:29PM 44.3811 -95.0858 64° Northeast 426 490 23,000  Level Minneapolis Center
12:30PM 44.4344 -94.9339 64° Northeast 434 499 23,000 -1,020 Level Minneapolis Center
12:31PM 44.4958 -94.7525 65° Northeast 432 497 21,000 -1,980 Descending Minneapolis Center
12:32PM 44.5408 -94.6178 65° Northeast 423 487 19,000 -2,340 Descending Minneapolis Center
12:33PM 44.5897 -94.4719 65° Northeast 413 475 16,200 -2,940 Descending Minneapolis Center
12:33PM 44.6311 -94.3625 62° Northeast 390 449 13,900 -3,180 Descending FAA TRACON SMA TRACON (SMA)
12:34PM 44.6483 -94.3100 65° Northeast 383 441 12,900 -2,700 Descending FAA TRACON SMA TRACON (SMA)
12:34PM 44.6614 -94.2686 66° East 378 435 12,100 -2,400 Descending FAA TRACON SMA TRACON (SMA)
12:34PM 44.6739 -94.2281 67° East 372 428 11,300 -1,620 Descending FAA TRACON SMA TRACON (SMA)
12:35PM 44.6906 -94.1775 65° Northeast 369 425 11,000 -480 Descending FAA TRACON SMA TRACON (SMA)
12:35PM 44.7014 -94.1358 70° East 368 423 11,000 -180 Level FAA TRACON SMA TRACON (SMA)
12:35PM 44.7103 -94.0936 73° East 368 423 10,900 -180 Descending FAA TRACON SMA TRACON (SMA)
12:36PM 44.7217 -94.0400 73° East 368 423 10,900  Level FAA TRACON SMA TRACON (SMA)
12:36PM 44.7303 -93.9978 74° East 369 425 10,900  Level FAA TRACON SMA TRACON (SMA)
12:36PM 44.7400 -93.9561 72° East 366 421 10,900  Level FAA TRACON SMA TRACON (SMA)
12:37PM 44.7494 -93.9139 73° East 367 422 10,900  Level FAA TRACON SMA TRACON (SMA)
12:37PM 44.7606 -93.8606 74° East 369 425 10,900 120 Level FAA TRACON SMA TRACON (SMA)
12:37PM 44.7700 -93.8181 73° East 368 423 11,000 120 Climbing FAA TRACON SMA TRACON (SMA)
12:38PM 44.7814 -93.7656 73° East 368 423 11,000  Level FAA TRACON SMA TRACON (SMA)
12:38PM 44.8006 -93.6811 72° East 368 423 11,000 -120 Level FAA TRACON SMA TRACON (SMA)
12:39PM 44.8114 -93.6275 74° East 369 425 10,900 -480 Descending FAA TRACON SMA TRACON (SMA)
12:39PM 44.8203 -93.5867 73° East 359 413 10,700 -660 Descending FAA TRACON SMA TRACON (SMA)
12:39PM 44.8292 -93.5483 72° East 340 391 10,500 -1,080 Descending FAA TRACON SMA TRACON (SMA)
12:40PM 44.8386 -93.5036 73° East 314 361 10,000 -1,500 Descending FAA TRACON SMA TRACON (SMA)
12:40PM 44.8464 -93.4683 73° East 305 351 9,500 -1,740 Descending FAA TRACON SMA TRACON (SMA)
12:40PM 44.8542 -93.4344 72° East 300 345 8,900 -1,980 Descending FAA TRACON SMA TRACON (SMA)
12:41PM 44.8633 -93.3917 73° East 294 338 8,200 -1,320 Descending FAA TRACON SMA TRACON (SMA)
12:41PM 44.8628 -93.3581 91° East 293 337 8,000 -480 Descending FAA TRACON SMA TRACON (SMA)
12:41PM 44.8486 -93.3306 126° Southeast 293 337 7,900 -180 Descending FAA TRACON SMA TRACON (SMA)
12:42PM 44.8233 -93.3181 161° South 262 302 7,900 -300 Level FAA TRACON SMA TRACON (SMA)
12:42PM 44.8033 -93.3133 170° South 238 274 7,700 -900 Descending FAA TRACON SMA TRACON (SMA)
12:42PM 44.7842 -93.3094 172° South 229 264 7,300 -1,380 Descending FAA TRACON SMA TRACON (SMA)
12:43PM 44.7600 -93.3042 171° South 226 260 6,800 -1,440 Descending FAA TRACON SMA TRACON (SMA)
12:43PM 44.7411 -93.3008 173° South 223 257 6,400 -780 Descending FAA TRACON SMA TRACON (SMA)
12:43PM 44.7231 -93.2978 173° South 217 250 6,300 -300 Descending FAA TRACON SMA TRACON (SMA)
12:44PM 44.7028 -93.2936 172° South 195 224 6,200 -900 Descending FAA TRACON SMA TRACON (SMA)
12:44PM 44.6892 -93.2833 152° Southeast 191 220 5,700 -1,380 Descending FAA TRACON SMA TRACON (SMA)
12:44PM 44.6850 -93.2603 104° East 208 239 5,300 -1,680 Descending FAA TRACON SMA TRACON (SMA)
12:45PM 44.6978 -93.2386 50° Northeast 208 239 4,600 -1,740 Descending FAA TRACON SMA TRACON (SMA)
12:45PM 44.7128 -93.2283 26° Northeast 194 223 4,100 -1,440 Descending FAA TRACON SMA TRACON (SMA)
12:45PM 44.7311 -93.2156 26° Northeast 191 220 3,600 -1,620 Descending FAA TRACON SMA TRACON (SMA)
12:46PM 44.7461 -93.2069 22° Northeast 190 219 3,100 -840 Descending FAA TRACON SMA TRACON (SMA)
12:46PM 44.7608 -93.2086 355° North 181 208 3,100  Level FAA TRACON SMA TRACON (SMA)